»·PEaware :: N6091U KCRQ-KEMT

N6091U :: KCRQ-KEMT

FLIGHT INFORMATION

Flight Status: Arrived
Operator: Privately registered:
United States
More flights under this callsign
Pilot: David Y. (25336)
Aircraft: PIPER PA-28 CHEROKEE ARCHER
(P28A)
More flights by this aircraft type
Origin: KCRQ McClellan-Palomar
United States
Destination: KEMT El Monte
United States
More flights between these airports :: More routes between these airports
Route: +
File this flight plan on PilotEdge
Remarks:
Altitude:
(Current/Filed)
0ft
Speed:
(Current/Filed)
0kts
Departed: 27-Oct-19 07:41 PM
Arrived: 27-Oct-19 08:25 PM
Distance/Time
Traveled:
69nm/0:43
Distance/Time
To Go:
Arrived

Flight Plot

Page will automatically refresh every two minutes.

Flight plan parsing failed; only flown route is shown


Map Options




Map Legend


Flown Route
Filed Route
Departure Airport
Arrival Airport
Navaid (VOR, NDB)
Fix

Horizontal Profiles

Position Reports

Time Latitude Longitude Heading Altitude Ground
Speed
27-Oct-19 19:32 33.126641 -117.275226 167 332ft 0kts
27-Oct-19 19:33 33.126641 -117.275226 167 332ft 0kts
27-Oct-19 19:34 33.127641 -117.275350 343 332ft 6kts
27-Oct-19 19:35 33.127891 -117.275435 346 332ft 0kts
27-Oct-19 19:36 33.128681 -117.273447 92 332ft 6kts
27-Oct-19 19:37 33.128636 -117.273380 154 332ft 0kts
27-Oct-19 19:38 33.128628 -117.273375 154 332ft 0kts
27-Oct-19 19:39 33.128713 -117.272405 54 332ft 3kts
27-Oct-19 19:40 33.127878 -117.286227 262 565ft 75kts
27-Oct-19 19:41 33.121341 -117.308951 244 1240ft 74kts
27-Oct-19 19:42 33.112653 -117.330598 255 1880ft 74kts
27-Oct-19 19:43 33.108002 -117.354435 273 2488ft 72kts
27-Oct-19 19:44 33.126103 -117.371240 330 2605ft 90kts
27-Oct-19 19:45 33.150795 -117.385304 331 2545ft 99kts
27-Oct-19 19:46 33.175517 -117.401555 325 2539ft 100kts
27-Oct-19 19:47 33.199916 -117.420609 325 2524ft 103kts
27-Oct-19 19:48 33.224677 -117.440283 328 2528ft 104kts
27-Oct-19 19:49 33.247106 -117.463106 311 2539ft 102kts
27-Oct-19 19:50 33.267042 -117.489327 314 2528ft 104kts
27-Oct-19 19:51 33.288612 -117.514246 307 2514ft 105kts
27-Oct-19 19:52 33.309185 -117.540281 310 2510ft 105kts
27-Oct-19 19:53 33.332312 -117.563058 318 2499ft 105kts
27-Oct-19 19:54 33.350677 -117.590977 301 2485ft 105kts
27-Oct-19 19:55 33.367224 -117.620450 327 2525ft 102kts
27-Oct-19 19:56 33.393947 -117.636531 332 2547ft 105kts
27-Oct-19 19:57 33.420870 -117.653619 331 2536ft 108kts
27-Oct-19 19:58 33.448873 -117.667742 330 2527ft 108kts
27-Oct-19 19:59 33.474281 -117.687732 323 2538ft 107kts
27-Oct-19 20:00 33.501112 -117.705457 326 2523ft 109kts
27-Oct-19 20:01 33.527175 -117.724963 332 2515ft 109kts
27-Oct-19 20:02 33.554269 -117.742256 331 2551ft 108kts
27-Oct-19 20:03 33.582119 -117.759236 333 2523ft 111kts
27-Oct-19 20:04 33.610426 -117.774439 333 2593ft 106kts
27-Oct-19 20:05 33.638504 -117.789651 339 2833ft 103kts
27-Oct-19 20:06 33.664757 -117.797593 349 3516ft 91kts
27-Oct-19 20:07 33.692457 -117.805621 342 3608ft 111kts
27-Oct-19 20:08 33.720385 -117.824657 327 3550ft 117kts
27-Oct-19 20:09 33.747998 -117.846187 326 3546ft 116kts
27-Oct-19 20:10 33.774819 -117.868505 326 3534ft 117kts
27-Oct-19 20:11 33.805161 -117.884045 337 3489ft 119kts
27-Oct-19 20:12 33.835095 -117.900981 331 3486ft 116kts
27-Oct-19 20:13 33.863751 -117.920968 330 3468ft 116kts
27-Oct-19 20:14 33.890483 -117.942839 327 3527ft 115kts
27-Oct-19 20:15 33.918091 -117.964352 329 3528ft 116kts
27-Oct-19 20:16 33.945858 -117.984741 331 3562ft 116kts
27-Oct-19 20:17 33.974125 -118.003301 338 3496ft 101kts
27-Oct-19 20:18 33.999883 -118.013452 339 2602ft 93kts
27-Oct-19 20:19 34.024500 -118.024463 335 1970ft 93kts
27-Oct-19 20:20 34.049350 -118.035542 350 1584ft 91kts
27-Oct-19 20:21 34.072864 -118.024215 28 1337ft 81kts
27-Oct-19 20:22 34.093199 -118.012089 32 1131ft 79kts
27-Oct-19 20:23 34.099654 -118.025921 228 645ft 60kts
27-Oct-19 20:24 34.086294 -118.034671 197 294ft 21kts
27-Oct-19 20:25 34.085400 -118.034644 114 294ft 0kts
27-Oct-19 20:26 34.084700 -118.034875 209 294ft 7kts
27-Oct-19 20:27 34.084359 -118.034485 20 294ft 0kts
27-Oct-19 20:28 34.084359 -118.034485 20 294ft 0kts
27-Oct-19 20:29 34.084359 -118.034485 20 294ft 0kts
27-Oct-19 20:30 34.084359 -118.034485 20 294ft 0kts
27-Oct-19 20:31 34.084359 -118.034485 20 294ft 0kts
27-Oct-19 20:32 34.084359 -118.034485 20 294ft 0kts
27-Oct-19 20:33 34.084359 -118.034485 20 294ft 0kts
27-Oct-19 20:34 34.084359 -118.034485 20 294ft 0kts
27-Oct-19 20:35 34.084359 -118.034485 20 294ft 0kts

Navigation Log

Ident Type
Flight plan parsing failed, navigation log unavailable